LiveATC.Net - Listen to live air traffic control over the Internet! Contact LiveATC.net for advertising information


ICAO: SABE  IATA: AEP   Airport: Aeroparque Jorge Newbery
City: Buenos Aires
Country: Argentina   Continent: South America
SABE METAR Weather: SABE 081600Z 27003KT 9999 SCT030 OVC100 27/22 Q1009
SABE Flight Activity (FlightAware)
SABE Gnd/Twr/App #2
Feed Status: DOWN
Last heard on: 2016-02-08 16:43:02 (0 days 0 hours 8 minutes ago)
SABE Gnd/Twr/App #2 Audio Archives
FacilityFrequency
Air to Air123.450
Baires124.900
Cordoba South126.500
Ezeiza Ground121.750
Ezeiza North135.500
Ezeiza South125.200

Powered by aeropuertotucuman.blogspot.com

NOTICE

Unauthorized use prohibited. See LiveATC.net Terms of Service


Find LiveATC Audio Streams


Airport/ARTCC Code

Frequency
(e.g., 124.400, 128.75)
Site-wide search

Browse LiveATC Feeds
LiveATC Coverage Map
Top 50 LiveATC Feeds
Bad Weather Areas

LiveATC FAQ
Offer a LiveATC Feed
Contact LiveATC.net
Press Inquiries

LiveATC on iPhone
LiveATC on Android

Windows Phone
Windows 8/10

LiveATC Mobile
(Mobile browser)

ATC Audio Archives
Interesting Recordings

LiveATC Forums


Home Page
About LiveATC.net
Make a Donation
LiveATC Store

Terms of Use
Privacy Policy

Canadian Air Freqs

AIRMETs/SIGMETs

FAA Airport Status
Nat'l Airspace Status
Arrival Demand Charts


Server Software By:
Icecast.org
Liquidsoap

Please make a donation to help us keep growing!